createdAt,value
2023-05-04T00:02:09.854Z,67.80
2023-05-04T00:04:37.207Z,66.50
2023-05-04T00:07:05.479Z,67.20
2023-05-04T00:09:32.815Z,67.30
2023-05-04T00:12:00.161Z,67.20
2023-05-04T00:14:27.429Z,67.30
2023-05-04T00:16:54.732Z,66.80
2023-05-04T00:19:21.976Z,67.00
2023-05-04T00:21:49.286Z,67.30
2023-05-04T00:24:16.991Z,67.60
2023-05-04T00:26:45.547Z,67.60
2023-05-04T00:29:12.921Z,67.40
2023-05-04T00:31:42.888Z,67.70
2023-05-04T00:34:10.255Z,68.30
2023-05-04T00:36:37.917Z,67.60
2023-05-04T00:39:05.371Z,68.50
2023-05-04T00:41:32.706Z,68.50
2023-05-04T00:44:00.087Z,67.60
2023-05-04T00:46:27.578Z,68.10
2023-05-04T00:48:55.009Z,68.40
2023-05-04T00:51:24.795Z,67.90
2023-05-04T00:53:54.679Z,69.70
2023-05-04T00:56:27.524Z,70.00
2023-05-04T00:58:57.804Z,70.00
2023-05-04T01:01:25.980Z,69.40
2023-05-04T01:03:55.146Z,69.30
2023-05-04T01:06:37.707Z,70.00
2023-05-04T01:09:20.705Z,70.00
2023-05-04T01:12:03.953Z,71.30
2023-05-04T01:14:32.745Z,70.10
2023-05-04T01:17:05.184Z,69.30
2023-05-04T01:19:33.234Z,70.30
2023-05-04T01:22:00.806Z,69.70
2023-05-04T01:24:29.209Z,69.60
2023-05-04T01:27:04.732Z,70.80
2023-05-04T01:29:34.875Z,71.00
2023-05-04T01:32:03.029Z,69.10
2023-05-04T01:34:30.866Z,69.90
2023-05-04T01:36:58.667Z,69.40
2023-05-04T01:39:26.096Z,69.50
2023-05-04T01:41:54.759Z,69.80
2023-05-04T01:44:23.311Z,69.70
2023-05-04T01:46:52.086Z,69.80
2023-05-04T01:49:19.467Z,69.70
2023-05-04T01:51:46.874Z,71.00
2023-05-04T01:54:14.349Z,70.50
2023-05-04T01:56:42.123Z,70.20
2023-05-04T01:59:09.561Z,70.50
2023-05-04T02:01:36.925Z,70.40
2023-05-04T02:04:04.761Z,70.10
2023-05-04T02:06:32.156Z,70.20
2023-05-04T02:08:59.513Z,70.90
2023-05-04T02:11:26.932Z,70.40
2023-05-04T02:13:54.339Z,71.50
2023-05-04T02:16:21.852Z,71.40
2023-05-04T02:18:49.224Z,70.60
2023-05-04T02:21:17.077Z,70.60
2023-05-04T02:23:44.752Z,70.60
2023-05-04T02:26:12.031Z,71.00
2023-05-04T02:28:39.358Z,71.40
2023-05-04T02:31:06.896Z,71.60
2023-05-04T02:33:34.744Z,70.70
2023-05-04T02:36:02.109Z,71.20
2023-05-04T02:38:29.391Z,71.10
2023-05-04T02:40:58.304Z,71.10
2023-05-04T02:43:25.681Z,71.20
2023-05-04T02:45:53.303Z,71.90
2023-05-04T02:48:20.931Z,71.70
2023-05-04T02:50:48.220Z,71.40
2023-05-04T02:53:15.592Z,71.60
2023-05-04T02:55:42.912Z,72.40
2023-05-04T02:58:10.274Z,71.30
2023-05-04T03:00:37.559Z,71.70
2023-05-04T03:03:04.915Z,71.80
2023-05-04T03:05:32.274Z,71.80
2023-05-04T03:08:01.052Z,72.50
2023-05-04T03:10:29.595Z,71.90
2023-05-04T03:12:57.004Z,73.80
2023-05-04T03:15:24.354Z,72.00
2023-05-04T03:17:51.754Z,72.10
2023-05-04T03:20:19.282Z,72.50
2023-05-04T03:22:46.582Z,72.30
2023-05-04T03:25:13.973Z,73.50
2023-05-04T03:27:41.369Z,72.50
2023-05-04T03:30:09.081Z,72.80
2023-05-04T03:32:40.006Z,72.70
2023-05-04T03:35:08.123Z,72.70
2023-05-04T03:37:36.486Z,72.80
2023-05-04T03:40:04.611Z,73.10
2023-05-04T03:42:32.635Z,73.30
2023-05-04T03:45:01.650Z,73.30
2023-05-04T03:47:30.711Z,73.60
2023-05-04T03:49:58.088Z,73.30
2023-05-04T03:52:25.505Z,73.00
2023-05-04T03:54:52.858Z,73.20
2023-05-04T03:57:22.256Z,73.20
2023-05-04T03:59:49.973Z,73.40
2023-05-04T04:02:18.860Z,73.20
2023-05-04T04:04:46.361Z,74.70
2023-05-04T04:07:13.912Z,74.30
2023-05-04T04:09:41.287Z,74.80
2023-05-04T04:12:08.666Z,73.60
2023-05-04T04:14:36.025Z,73.70
2023-05-04T04:17:03.386Z,74.00
2023-05-04T04:19:32.018Z,74.30
2023-05-04T04:21:59.990Z,73.90
2023-05-04T04:24:27.432Z,73.60
2023-05-04T04:26:54.765Z,73.80
2023-05-04T04:29:22.091Z,74.40
2023-05-04T04:31:49.809Z,74.00
2023-05-04T04:34:17.967Z,74.10
2023-05-04T04:36:45.319Z,73.70
2023-05-04T04:39:12.623Z,75.00
2023-05-04T04:41:39.947Z,74.30
2023-05-04T04:44:07.519Z,74.50
2023-05-04T04:46:34.904Z,74.60
2023-05-04T04:49:02.792Z,74.30
2023-05-04T04:51:30.145Z,74.10
2023-05-04T04:53:57.442Z,74.30
2023-05-04T04:56:24.814Z,74.60
2023-05-04T04:58:52.240Z,74.30
2023-05-04T05:01:19.622Z,74.60
2023-05-04T05:03:47.483Z,74.50
2023-05-04T05:06:15.015Z,75.10
2023-05-04T05:08:43.916Z,75.20
2023-05-04T05:11:12.830Z,74.20
2023-05-04T05:13:40.192Z,75.60
2023-05-04T05:16:07.578Z,74.80
2023-05-04T05:18:36.368Z,74.60
2023-05-04T05:21:03.984Z,73.80
2023-05-04T05:23:31.316Z,74.30
2023-05-04T05:25:59.475Z,74.60
2023-05-04T05:28:28.280Z,74.90
2023-05-04T05:30:55.759Z,75.10
2023-05-04T05:33:23.707Z,74.60
2023-05-04T05:35:51.261Z,74.90
2023-05-04T05:38:18.733Z,74.70
2023-05-04T05:40:46.072Z,74.50
2023-05-04T05:43:13.323Z,74.20
2023-05-04T05:45:42.228Z,74.70
2023-05-04T05:48:09.623Z,72.70
2023-05-04T05:50:38.054Z,74.10
2023-05-04T05:53:05.890Z,75.70
2023-05-04T05:55:34.645Z,74.70
2023-05-04T05:58:02.018Z,73.40
2023-05-04T06:00:29.348Z,74.60
2023-05-04T06:02:56.865Z,74.20
2023-05-04T06:05:24.254Z,74.10
2023-05-04T06:07:51.666Z,74.10
2023-05-04T06:10:19.037Z,74.10
2023-05-04T06:12:46.455Z,73.60
2023-05-04T06:15:14.454Z,72.90
2023-05-04T06:17:42.384Z,72.80
2023-05-04T06:20:10.031Z,73.10
2023-05-04T06:22:37.361Z,73.00
2023-05-04T06:25:07.134Z,72.90
2023-05-04T06:27:35.594Z,72.70
2023-05-04T06:30:03.665Z,73.10
2023-05-04T06:32:31.395Z,72.80
2023-05-04T06:34:59.473Z,73.10
2023-05-04T06:37:26.852Z,72.70
2023-05-04T06:39:54.758Z,72.80
2023-05-04T06:42:22.108Z,73.90
2023-05-04T06:44:53.030Z,72.50
2023-05-04T06:47:20.469Z,72.90
2023-05-04T06:49:47.999Z,71.90
2023-05-04T06:52:15.389Z,71.90
2023-05-04T06:54:42.704Z,71.90
2023-05-04T06:57:10.665Z,73.10
2023-05-04T06:59:38.054Z,71.60
2023-05-04T07:02:05.826Z,71.40
2023-05-04T07:04:33.149Z,71.20
2023-05-04T07:07:00.473Z,71.50
2023-05-04T07:09:27.773Z,71.40
2023-05-04T07:11:55.178Z,71.30
2023-05-04T07:14:23.015Z,71.40
2023-05-04T07:16:50.438Z,70.60
2023-05-04T07:19:17.776Z,70.00
2023-05-04T07:21:45.126Z,69.40
2023-05-04T07:24:12.463Z,69.40
2023-05-04T07:26:39.875Z,69.30
2023-05-04T07:29:07.315Z,69.40
2023-05-04T07:31:35.235Z,69.40
2023-05-04T07:34:02.696Z,68.90
2023-05-04T07:36:30.643Z,68.60
2023-05-04T07:38:57.960Z,68.70
2023-05-04T07:41:25.320Z,68.50
2023-05-04T07:43:52.640Z,68.40
2023-05-04T07:46:20.270Z,68.40
2023-05-04T07:48:47.637Z,67.90
2023-05-04T07:51:16.211Z,67.70
2023-05-04T07:53:43.823Z,68.20
2023-05-04T07:56:12.861Z,67.40
2023-05-04T07:58:40.610Z,67.60
2023-05-04T08:01:08.405Z,67.20
2023-05-04T08:03:36.363Z,66.50
2023-05-04T08:06:03.771Z,66.10
2023-05-04T08:08:31.129Z,66.00
2023-05-04T08:11:11.965Z,65.80
2023-05-04T08:13:46.884Z,65.80
2023-05-04T08:16:14.370Z,65.40
2023-05-04T08:18:41.975Z,65.20
2023-05-04T08:21:09.381Z,64.90
2023-05-04T08:23:36.948Z,64.70
2023-05-04T08:26:04.992Z,64.20
2023-05-04T08:28:39.629Z,64.20
2023-05-04T08:31:07.816Z,64.40
2023-05-04T08:33:35.321Z,63.10
2023-05-04T08:36:06.987Z,63.60
2023-05-04T08:38:37.039Z,63.20
2023-05-04T08:41:05.041Z,63.10
2023-05-04T08:43:36.532Z,63.10
2023-05-04T08:46:05.991Z,63.00
2023-05-04T08:48:34.713Z,62.30
2023-05-04T08:51:04.470Z,62.10
2023-05-04T08:53:35.414Z,62.00
2023-05-04T08:56:07.700Z,61.70
2023-05-04T08:58:43.900Z,61.40
2023-05-04T09:01:12.306Z,61.10
2023-05-04T09:03:40.031Z,61.10
2023-05-04T09:06:09.471Z,62.30
2023-05-04T09:08:37.074Z,61.00
2023-05-04T09:11:04.877Z,60.70
2023-05-04T09:13:32.250Z,60.60
2023-05-04T09:15:59.857Z,60.70
2023-05-04T09:18:40.767Z,60.50
2023-05-04T09:21:09.582Z,60.20
2023-05-04T09:23:51.357Z,59.80
2023-05-04T09:26:32.100Z,59.90
2023-05-04T09:29:15.558Z,59.70
2023-05-04T09:31:48.402Z,59.80
2023-05-04T09:34:16.232Z,59.60
2023-05-04T09:36:43.607Z,59.30
2023-05-04T09:39:15.692Z,58.90
2023-05-04T09:41:43.484Z,58.70
2023-05-04T09:44:24.533Z,58.20
2023-05-04T09:46:59.388Z,57.60
2023-05-04T09:49:34.172Z,57.40
2023-05-04T09:52:03.148Z,56.90
2023-05-04T09:54:35.448Z,57.10
2023-05-04T09:57:29.249Z,56.00
2023-05-04T09:59:56.989Z,55.80
2023-05-04T10:02:24.870Z,56.00
2023-05-04T10:04:52.732Z,56.10
2023-05-04T10:07:21.824Z,55.80
2023-05-04T10:09:50.287Z,56.10
2023-05-04T10:12:17.896Z,56.10
2023-05-04T10:14:47.368Z,55.30
2023-05-04T10:17:39.598Z,55.20
2023-05-04T10:20:37.521Z,54.70
2023-05-04T10:23:28.553Z,54.80
2023-05-04T10:26:16.642Z,54.40
2023-05-04T10:28:57.798Z,53.30
2023-05-04T10:31:25.721Z,53.40
2023-05-04T10:33:53.963Z,53.90
2023-05-04T10:36:21.440Z,53.50
2023-05-04T10:38:48.852Z,52.70
2023-05-04T10:41:17.085Z,53.10
2023-05-04T10:43:54.277Z,52.80
2023-05-04T10:46:22.973Z,52.40
2023-05-04T10:48:51.228Z,52.10
2023-05-04T10:51:24.317Z,51.70
2023-05-04T10:53:52.498Z,51.40
2023-05-04T10:56:23.080Z,51.40
2023-05-04T10:58:51.253Z,51.70
2023-05-04T11:01:19.543Z,51.40
2023-05-04T11:03:48.546Z,50.50
2023-05-04T11:06:23.350Z,50.60
2023-05-04T11:09:01.913Z,50.10
2023-05-04T11:11:29.353Z,49.90
2023-05-04T11:13:57.056Z,50.00
2023-05-04T11:16:27.793Z,49.50
2023-05-04T11:18:55.336Z,49.30
2023-05-04T11:21:28.922Z,50.00
2023-05-04T11:24:00.521Z,49.30
2023-05-04T11:26:28.735Z,49.90
2023-05-04T11:28:56.412Z,49.90
2023-05-04T11:31:23.788Z,49.20
2023-05-04T11:33:54.478Z,48.90
2023-05-04T11:36:22.920Z,48.90
2023-05-04T11:38:50.988Z,48.10
2023-05-04T11:41:18.375Z,48.10
2023-05-04T11:43:46.730Z,48.00
2023-05-04T11:46:14.836Z,48.20
2023-05-04T11:48:42.557Z,48.30
2023-05-04T11:51:11.076Z,48.10
2023-05-04T11:53:40.611Z,47.70
2023-05-04T11:56:09.350Z,47.40
2023-05-04T11:58:37.469Z,47.40
2023-05-04T12:01:05.174Z,48.60
2023-05-04T12:06:05.382Z,48.20
2023-05-04T12:08:42.111Z,47.10
2023-05-04T12:11:11.535Z,46.80
2023-05-04T12:13:42.528Z,46.70
2023-05-04T12:16:18.447Z,46.80
2023-05-04T12:18:48.768Z,47.10
2023-05-04T12:21:18.931Z,47.20
2023-05-04T12:23:47.452Z,48.50
2023-05-04T12:26:17.427Z,47.30
2023-05-04T12:28:47.548Z,47.00
2023-05-04T12:31:15.132Z,47.00
2023-05-04T12:33:42.903Z,47.60
2023-05-04T12:36:10.708Z,47.40
2023-05-04T12:38:38.095Z,46.40
2023-05-04T12:41:10.614Z,46.50
2023-05-04T12:43:38.414Z,46.40
2023-05-04T12:46:06.422Z,46.80
2023-05-04T12:48:34.263Z,46.30
2023-05-04T12:51:04.464Z,46.50
2023-05-04T12:53:32.313Z,46.00
2023-05-04T12:56:01.412Z,46.30
2023-05-04T12:58:28.965Z,47.10
2023-05-04T13:00:58.824Z,45.70
2023-05-04T13:03:28.844Z,45.70
2023-05-04T13:05:57.608Z,45.30
2023-05-04T13:08:25.005Z,45.30
2023-05-04T13:10:52.379Z,45.50
2023-05-04T13:13:23.003Z,45.80
2023-05-04T13:15:51.083Z,45.40
2023-05-04T13:18:18.622Z,45.30
2023-05-04T13:20:46.173Z,45.40
2023-05-04T13:23:14.246Z,45.50
2023-05-04T13:25:42.192Z,45.20
2023-05-04T13:28:09.578Z,44.70
2023-05-04T13:30:36.852Z,44.90
2023-05-04T13:33:13.258Z,45.00
2023-05-04T13:35:44.758Z,45.30
2023-05-04T13:38:12.338Z,44.90
2023-05-04T13:40:39.692Z,45.00
2023-05-04T13:43:07.628Z,44.90
2023-05-04T13:45:35.177Z,44.70
2023-05-04T13:48:03.111Z,45.20
2023-05-04T13:50:31.966Z,45.40
2023-05-04T13:52:59.339Z,45.30
2023-05-04T13:55:27.109Z,45.20
2023-05-04T13:57:54.609Z,45.50
2023-05-04T14:00:22.329Z,45.60
2023-05-04T14:02:49.776Z,44.90
2023-05-04T14:05:17.665Z,44.50
2023-05-04T14:07:44.965Z,44.50
2023-05-04T14:10:13.131Z,44.60
2023-05-04T14:12:40.608Z,44.80
2023-05-04T14:15:08.607Z,44.60
2023-05-04T14:17:39.493Z,44.30
2023-05-04T14:20:07.833Z,44.20
2023-05-04T14:22:38.033Z,44.50
2023-05-04T14:25:06.321Z,44.10
2023-05-04T14:27:38.862Z,43.90
2023-05-04T14:30:09.414Z,43.60
2023-05-04T14:32:36.852Z,43.30
2023-05-04T14:35:07.864Z,42.50
2023-05-04T14:37:37.653Z,42.90
2023-05-04T14:40:06.980Z,43.40
2023-05-04T14:42:35.120Z,43.20
2023-05-04T14:45:02.619Z,42.90
2023-05-04T14:47:30.104Z,42.90
2023-05-04T14:49:57.702Z,42.50
2023-05-04T14:52:26.560Z,42.60
2023-05-04T14:54:53.957Z,42.70
2023-05-04T14:57:21.531Z,42.20
2023-05-04T14:59:49.003Z,41.90
2023-05-04T15:02:17.589Z,41.90
2023-05-04T15:04:46.876Z,42.10
2023-05-04T15:07:20.416Z,42.10
2023-05-04T15:09:47.779Z,42.20
2023-05-04T15:12:15.119Z,42.20
2023-05-04T15:14:42.517Z,42.20
2023-05-04T15:17:10.606Z,42.10
2023-05-04T15:19:41.305Z,41.30
2023-05-04T15:22:08.581Z,41.20
2023-05-04T15:24:35.951Z,41.10
2023-05-04T15:27:03.702Z,41.10
2023-05-04T15:29:31.944Z,41.50
2023-05-04T15:31:59.442Z,41.20
2023-05-04T15:34:26.919Z,41.50
2023-05-04T15:36:55.379Z,41.90
2023-05-04T15:39:22.774Z,41.90
2023-05-04T15:41:50.288Z,41.80
2023-05-04T15:44:17.776Z,41.70
2023-05-04T15:46:47.765Z,41.90
2023-05-04T15:49:15.122Z,42.00
2023-05-04T15:51:42.571Z,42.40
2023-05-04T15:54:09.907Z,42.20
2023-05-04T15:56:37.366Z,42.20
2023-05-04T15:59:05.512Z,42.10
2023-05-04T16:01:33.339Z,42.10
2023-05-04T16:04:00.951Z,42.00
2023-05-04T16:06:28.392Z,42.10
2023-05-04T16:08:57.106Z,42.20
2023-05-04T16:11:24.469Z,42.10
2023-05-04T16:13:51.829Z,41.90
2023-05-04T16:16:19.224Z,42.00
2023-05-04T16:18:46.615Z,41.80
2023-05-04T16:21:15.141Z,42.10
2023-05-04T16:23:42.574Z,42.10
2023-05-04T16:26:09.957Z,42.10
2023-05-04T16:28:37.449Z,42.50
2023-05-04T16:31:06.144Z,42.30
2023-05-04T16:33:33.583Z,42.60
2023-05-04T16:36:00.927Z,42.30
2023-05-04T16:38:28.226Z,42.60
2023-05-04T16:40:55.731Z,42.60
2023-05-04T16:43:24.036Z,42.50
2023-05-04T16:45:51.379Z,42.50
2023-05-04T16:48:19.864Z,43.00
2023-05-04T16:50:47.238Z,43.20
2023-05-04T16:53:14.657Z,43.10
2023-05-04T16:55:49.718Z,43.20
2023-05-04T16:58:17.577Z,43.00
2023-05-04T17:00:45.008Z,43.10
2023-05-04T17:03:12.602Z,43.50
2023-05-04T17:05:40.700Z,43.40
2023-05-04T17:08:08.249Z,43.40
2023-05-04T17:10:35.756Z,43.50
2023-05-04T17:13:03.187Z,43.60
2023-05-04T17:15:30.611Z,43.60
2023-05-04T17:17:58.203Z,43.40
2023-05-04T17:20:30.309Z,43.50
2023-05-04T17:22:58.783Z,43.40
2023-05-04T17:25:26.877Z,43.50
2023-05-04T17:27:54.949Z,43.80
2023-05-04T17:30:22.439Z,43.80
2023-05-04T17:32:50.012Z,43.90
2023-05-04T17:35:25.249Z,44.10
2023-05-04T17:37:57.608Z,44.20
2023-05-04T17:40:27.682Z,44.40
2023-05-04T17:42:56.045Z,44.20
2023-05-04T17:45:23.437Z,44.90
2023-05-04T17:47:51.516Z,44.80
2023-05-04T17:50:19.356Z,45.00
2023-05-04T17:52:51.729Z,44.70
2023-05-04T17:55:19.178Z,45.20
2023-05-04T17:57:46.599Z,45.30
2023-05-04T18:00:14.679Z,45.40
2023-05-04T18:02:42.156Z,45.50
2023-05-04T18:05:09.899Z,45.70
2023-05-04T18:07:37.472Z,46.20
2023-05-04T18:10:05.401Z,46.30
2023-05-04T18:12:34.079Z,46.40
2023-05-04T18:15:02.854Z,46.30
2023-05-04T18:17:30.391Z,46.60
2023-05-04T18:19:57.750Z,46.50
2023-05-04T18:22:25.171Z,46.40
2023-05-04T18:24:52.780Z,46.60
2023-05-04T18:27:20.222Z,46.60
2023-05-04T18:29:48.638Z,46.60
2023-05-04T18:32:16.022Z,46.60
2023-05-04T18:34:47.675Z,47.00
2023-05-04T18:37:15.073Z,46.90
2023-05-04T18:39:42.381Z,47.00
2023-05-04T18:42:09.689Z,47.10
2023-05-04T18:44:37.574Z,47.50
2023-05-04T18:47:05.003Z,47.30
2023-05-04T18:49:32.393Z,47.50
2023-05-04T18:52:01.396Z,47.60
2023-05-04T18:54:32.291Z,47.70
2023-05-04T18:56:59.809Z,48.10
2023-05-04T18:59:27.283Z,48.00
2023-05-04T19:01:56.403Z,48.30
2023-05-04T19:04:23.722Z,48.50
2023-05-04T19:06:53.474Z,48.50
2023-05-04T19:09:20.966Z,48.70
2023-05-04T19:11:48.278Z,48.90
2023-05-04T19:14:15.644Z,48.80
2023-05-04T19:16:43.004Z,49.00
2023-05-04T19:19:10.323Z,49.10
2023-05-04T19:21:37.717Z,49.20
2023-05-04T19:24:05.217Z,49.20
2023-05-04T19:26:32.751Z,49.30
2023-05-04T19:29:00.051Z,49.40
2023-05-04T19:31:27.618Z,49.90
2023-05-04T19:33:54.994Z,50.00
2023-05-04T19:36:22.384Z,50.10
2023-05-04T19:38:49.731Z,50.00
2023-05-04T19:41:17.221Z,50.20
2023-05-04T19:43:44.566Z,50.30
2023-05-04T19:46:12.088Z,50.10
2023-05-04T19:48:39.546Z,50.30
2023-05-04T19:51:07.058Z,50.50
2023-05-04T19:53:34.931Z,50.30
2023-05-04T19:56:02.373Z,50.60
2023-05-04T19:58:30.910Z,50.40
2023-05-04T20:00:58.274Z,50.60
2023-05-04T20:03:25.762Z,50.70
2023-05-04T20:05:53.337Z,50.70
2023-05-04T20:08:20.903Z,50.90
2023-05-04T20:10:48.199Z,51.10
2023-05-04T20:13:15.734Z,51.10
2023-05-04T20:15:43.127Z,51.40
2023-05-04T20:18:10.622Z,51.60
2023-05-04T20:20:37.946Z,51.50
2023-05-04T20:23:05.349Z,51.20
2023-05-04T20:25:32.943Z,51.70
2023-05-04T20:28:00.775Z,51.60
2023-05-04T20:30:28.867Z,51.70
2023-05-04T20:32:56.378Z,52.00
2023-05-04T20:35:23.760Z,52.00
2023-05-04T20:37:51.178Z,52.10
2023-05-04T20:40:22.318Z,52.10
2023-05-04T20:42:51.406Z,52.20
2023-05-04T20:45:19.010Z,52.30
2023-05-04T20:47:46.513Z,52.10
2023-05-04T20:50:16.467Z,52.50
2023-05-04T20:52:44.599Z,52.40
2023-05-04T20:55:12.037Z,52.50
2023-05-04T20:57:39.456Z,52.50
2023-05-04T21:00:08.112Z,52.40
2023-05-04T21:02:35.611Z,52.50
2023-05-04T21:05:03.484Z,52.60
2023-05-04T21:07:31.295Z,52.90
2023-05-04T21:09:58.738Z,52.80
2023-05-04T21:12:26.455Z,52.80
2023-05-04T21:14:53.845Z,52.80
2023-05-04T21:17:21.264Z,53.00
2023-05-04T21:19:48.681Z,53.10
2023-05-04T21:22:17.675Z,53.10
2023-05-04T21:24:46.550Z,53.00
2023-05-04T21:27:14.140Z,53.30
2023-05-04T21:29:41.512Z,53.70
2023-05-04T21:32:09.176Z,53.60
2023-05-04T21:34:36.550Z,53.90
2023-05-04T21:37:04.182Z,53.90
2023-05-04T21:39:31.796Z,54.00
2023-05-04T21:41:59.135Z,53.90
2023-05-04T21:44:26.473Z,54.10
2023-05-04T21:46:53.898Z,54.10
2023-05-04T21:49:21.347Z,54.10
2023-05-04T21:51:49.196Z,54.20
2023-05-04T21:54:17.025Z,54.20
2023-05-04T21:56:44.462Z,54.40
2023-05-04T21:59:11.909Z,54.30
2023-05-04T22:01:39.257Z,54.30
2023-05-04T22:04:07.282Z,54.30
2023-05-04T22:06:34.815Z,54.40
2023-05-04T22:09:02.189Z,54.50
2023-05-04T22:11:29.738Z,54.50
2023-05-04T22:13:57.554Z,54.40
2023-05-04T22:16:25.310Z,54.50
2023-05-04T22:18:52.727Z,54.50
2023-05-04T22:21:20.078Z,54.90
2023-05-04T22:23:47.515Z,55.00
2023-05-04T22:26:14.881Z,55.20
2023-05-04T22:28:42.207Z,55.40
2023-05-04T22:31:09.579Z,55.20
2023-05-04T22:33:36.922Z,55.30
2023-05-04T22:36:04.485Z,55.40
2023-05-04T22:38:31.874Z,55.70
2023-05-04T22:40:59.246Z,55.60
2023-05-04T22:43:26.602Z,55.80
2023-05-04T22:45:53.958Z,56.10
2023-05-04T22:48:21.381Z,56.00
2023-05-04T22:50:48.937Z,56.30
2023-05-04T22:53:16.308Z,56.40
2023-05-04T22:55:43.685Z,56.60
2023-05-04T22:58:11.248Z,56.90
2023-05-04T23:00:38.771Z,57.90
2023-05-04T23:03:06.661Z,57.10
2023-05-04T23:05:34.019Z,57.20
2023-05-04T23:08:01.361Z,57.30
2023-05-04T23:10:29.006Z,57.50
2023-05-04T23:12:56.438Z,57.60
2023-05-04T23:15:25.075Z,57.90
2023-05-04T23:17:52.430Z,57.80
2023-05-04T23:20:19.762Z,58.00
2023-05-04T23:22:47.080Z,58.10
2023-05-04T23:25:14.445Z,58.20
2023-05-04T23:27:41.835Z,58.40
2023-05-04T23:30:09.929Z,58.50
2023-05-04T23:32:37.456Z,58.60
2023-05-04T23:35:05.277Z,58.70
2023-05-04T23:37:32.818Z,59.10
2023-05-04T23:40:00.641Z,58.90
2023-05-04T23:42:27.982Z,59.00
2023-05-04T23:44:55.871Z,59.20
2023-05-04T23:47:23.463Z,59.40
2023-05-04T23:49:50.857Z,59.50
2023-05-04T23:52:18.252Z,59.70
2023-05-04T23:54:46.435Z,59.90
2023-05-04T23:57:13.784Z,59.90
2023-05-04T23:59:41.963Z,60.10
